Time;durP1;ratioP1;P1;durP2;ratioP2;P2;SDS_P1;SDS_P2;PMS_P1;PMS_P2;Temp;Humidity;BMP_temperature;BMP_pressure;BME280_temperature;BME280_humidity;BME280_pressure;Samples;Min_cycle;Max_cycle;Signal;HPM_P1;HPM_P2
2022/04/25 00:00:01;;;;;;;36.73;25.20;;;8.30;99.90;;;;;;5075807;28;20876;-74
2022/04/25 00:02:29;;;;;;;32.93;24.33;;;8.40;99.90;;;;;;5087708;28;20442;-74
2022/04/25 00:04:55;;;;;;;32.57;24.10;;;8.40;99.90;;;;;;5086883;28;20560;-74
2022/04/25 00:07:22;;;;;;;32.23;22.37;;;8.40;99.90;;;;;;5089204;28;20451;-75
2022/04/25 00:09:50;;;;;;;31.70;23.53;;;8.40;99.90;;;;;;5087270;28;20519;-75
2022/04/25 00:12:18;;;;;;;32.87;23.27;;;8.40;99.90;;;;;;5080277;28;20486;-74
2022/04/25 00:14:45;;;;;;;36.73;25.20;;;8.40;99.90;;;;;;5072635;28;20562;-74
2022/04/25 00:17:11;;;;;;;33.70;23.57;;;8.50;99.90;;;;;;5085264;28;20451;-74
2022/04/25 00:19:38;;;;;;;33.00;23.40;;;8.50;99.90;;;;;;5088535;28;20539;-76
2022/04/25 00:22:05;;;;;;;37.23;24.60;;;8.50;99.90;;;;;;5087629;28;20950;-75
2022/04/25 00:24:31;;;;;;;32.67;23.77;;;8.50;99.90;;;;;;5087954;28;20446;-75
2022/04/25 00:26:58;;;;;;;34.50;23.23;;;8.50;99.90;;;;;;5081005;28;20468;-75
2022/04/25 00:29:26;;;;;;;35.30;25.27;;;8.50;99.90;;;;;;5073766;28;21064;-75
2022/04/25 00:31:53;;;;;;;33.83;23.60;;;8.50;99.90;;;;;;5075838;28;20475;-75
2022/04/25 00:34:19;;;;;;;35.30;23.50;;;8.50;99.90;;;;;;5073299;28;20447;-75
2022/04/25 00:36:46;;;;;;;33.10;22.60;;;8.50;99.90;;;;;;5074712;28;20452;-75
2022/04/25 00:39:13;;;;;;;33.03;23.80;;;8.50;99.90;;;;;;5076258;28;20451;-75
2022/04/25 00:41:40;;;;;;;35.93;23.47;;;8.50;99.90;;;;;;5088263;28;20450;-75
2022/04/25 00:44:06;;;;;;;38.87;24.90;;;8.50;99.90;;;;;;5086528;28;20497;-76
2022/04/25 00:46:36;;;;;;;39.43;24.37;;;8.40;99.90;;;;;;5076013;28;20451;-75
2022/04/25 00:49:03;;;;;;;38.27;25.00;;;8.40;99.90;;;;;;5086419;28;20447;-75
2022/04/25 00:51:29;;;;;;;40.37;26.20;;;8.40;99.90;;;;;;5088501;28;20886;-75
2022/04/25 00:53:56;;;;;;;37.30;24.50;;;8.30;99.90;;;;;;5085853;28;20963;-75
2022/04/25 00:56:25;;;;;;;35.37;22.67;;;8.30;99.90;;;;;;5088121;28;20516;-75
2022/04/25 00:58:52;;;;;;;35.57;23.53;;;8.20;99.90;;;;;;5085931;28;20873;-75
2022/04/25 01:01:19;;;;;;;34.60;23.00;;;8.20;99.90;;;;;;5082540;28;20995;-75
2022/04/25 01:03:48;;;;;;;30.20;22.00;;;8.10;99.90;;;;;;5072810;28;20444;-75
2022/04/25 01:06:15;;;;;;;33.20;22.20;;;8.10;99.90;;;;;;5074222;28;20510;-75
2022/04/25 01:08:42;;;;;;;35.37;22.17;;;8.10;99.90;;;;;;5073456;28;20498;-75
2022/04/25 01:11:08;;;;;;;33.07;23.20;;;8.00;99.90;;;;;;5086508;28;20467;-75
2022/04/25 01:13:35;;;;;;;31.50;21.70;;;8.00;99.90;;;;;;5087857;28;20474;-75
2022/04/25 01:16:02;;;;;;;32.93;22.00;;;8.00;99.90;;;;;;5078826;28;20444;-75
2022/04/25 01:18:28;;;;;;;35.73;21.87;;;8.00;99.90;;;;;;5073295;28;20459;-75
2022/04/25 01:20:58;;;;;;;40.07;22.20;;;7.90;99.90;;;;;;5074257;28;20905;-75
2022/04/25 01:28:55;;;;;;;33.63;22.30;;;7.80;99.90;;;;;;5074198;28;20447;-75
2022/04/25 01:31:22;;;;;;;30.90;21.70;;;7.70;99.90;;;;;;5077610;28;20539;-75
2022/04/25 01:33:48;;;;;;;30.90;22.03;;;7.70;99.90;;;;;;5086139;28;20486;-75
2022/04/25 01:36:15;;;;;;;31.20;21.47;;;7.60;99.90;;;;;;5087063;28;20527;-75
2022/04/25 01:38:43;;;;;;;33.80;22.77;;;7.60;99.90;;;;;;5087962;28;20476;-75
2022/04/25 01:41:10;;;;;;;30.80;21.60;;;7.50;99.90;;;;;;5085417;28;20971;-75
2022/04/25 01:43:37;;;;;;;31.57;22.07;;;7.40;99.90;;;;;;5084383;28;20500;-75
2022/04/25 01:46:04;;;;;;;33.00;21.60;;;7.40;99.90;;;;;;5082313;28;20446;-75
2022/04/25 01:48:31;;;;;;;31.47;23.07;;;7.40;99.90;;;;;;5087522;28;20565;-75
2022/04/25 01:50:58;;;;;;;31.73;22.53;;;7.30;99.90;;;;;;5085546;28;20467;-75
2022/04/25 01:53:24;;;;;;;34.93;22.57;;;7.30;99.90;;;;;;5086503;28;20474;-75
2022/04/25 01:55:52;;;;;;;35.60;22.60;;;7.30;99.90;;;;;;5085628;28;20451;-75
2022/04/25 01:58:19;;;;;;;35.10;23.53;;;7.20;99.90;;;;;;5087260;28;20530;-75
2022/04/25 02:00:46;;;;;;;32.63;23.20;;;7.20;99.90;;;;;;5081507;28;20479;-75
2022/04/25 02:03:13;;;;;;;31.80;22.13;;;7.10;99.90;;;;;;5084933;28;20444;-75
2022/04/25 02:05:40;;;;;;;33.90;23.10;;;7.10;99.90;;;;;;5081824;28;20505;-75
2022/04/25 02:08:07;;;;;;;32.60;22.60;;;7.10;99.90;;;;;;5073792;28;20595;-75
2022/04/25 02:10:34;;;;;;;35.30;22.77;;;7.10;99.90;;;;;;5072538;28;20479;-75
2022/04/25 02:13:02;;;;;;;32.90;22.33;;;7.00;99.90;;;;;;5077333;28;20535;-75
2022/04/25 02:15:29;;;;;;;34.83;22.80;;;7.00;99.90;;;;;;5082195;28;20505;-76
2022/04/25 02:17:56;;;;;;;31.90;21.50;;;6.90;99.90;;;;;;5073439;28;20539;-75
2022/04/25 02:20:22;;;;;;;35.50;23.30;;;6.90;99.90;;;;;;5072174;28;20468;-75
2022/04/25 02:22:49;;;;;;;34.60;22.77;;;6.90;99.90;;;;;;5072712;28;20451;-75
2022/04/25 02:25:16;;;;;;;40.57;23.90;;;6.90;99.90;;;;;;5072732;28;20443;-75
2022/04/25 02:27:42;;;;;;;32.93;22.67;;;6.90;99.90;;;;;;5073233;28;20447;-75
2022/04/25 02:30:12;;;;;;;33.50;22.47;;;6.90;99.90;;;;;;5084652;28;20528;-75
2022/04/25 02:32:38;;;;;;;32.07;22.60;;;6.90;99.90;;;;;;5085996;28;20482;-75
2022/04/25 02:35:06;;;;;;;38.40;22.43;;;6.90;99.90;;;;;;5084604;28;20516;-75
2022/04/25 02:37:33;;;;;;;33.20;23.23;;;6.80;99.90;;;;;;5086302;28;20458;-75
2022/04/25 02:39:59;;;;;;;32.93;23.07;;;6.80;99.90;;;;;;5078087;28;20475;-75
2022/04/25 02:42:26;;;;;;;33.07;22.20;;;6.80;99.90;;;;;;5072133;28;20943;-75
2022/04/25 02:44:53;;;;;;;32.30;21.60;;;6.80;99.90;;;;;;5074845;28;20507;-76
2022/04/25 02:47:21;;;;;;;37.33;22.63;;;6.80;99.90;;;;;;5078376;28;20456;-75
2022/04/25 02:49:47;;;;;;;30.30;21.60;;;6.70;99.90;;;;;;5072320;28;20482;-75
2022/04/25 02:52:14;;;;;;;36.53;23.17;;;6.70;99.90;;;;;;5085594;28;20444;-75
2022/04/25 02:54:41;;;;;;;34.80;23.50;;;6.70;99.90;;;;;;5087488;28;20656;-75
2022/04/25 02:57:07;;;;;;;32.23;22.57;;;6.70;99.90;;;;;;5088775;28;20964;-75
2022/04/25 02:59:34;;;;;;;33.93;22.17;;;6.70;99.90;;;;;;5090172;28;20478;-75
2022/04/25 03:02:01;;;;;;;35.50;22.17;;;6.70;99.90;;;;;;5087659;28;20993;-75
2022/04/25 03:04:29;;;;;;;34.57;23.30;;;6.70;99.90;;;;;;5089778;28;20454;-75
2022/04/25 03:06:55;;;;;;;29.20;21.17;;;6.60;99.90;;;;;;5079922;28;20447;-75
2022/04/25 03:09:22;;;;;;;31.93;20.87;;;6.60;99.90;;;;;;5089873;28;20466;-75
2022/04/25 03:11:50;;;;;;;31.23;21.70;;;6.70;99.90;;;;;;5089813;28;20455;-75
2022/04/25 03:14:17;;;;;;;34.33;21.67;;;6.70;99.90;;;;;;5086846;28;20502;-76
2022/04/25 03:16:43;;;;;;;32.10;20.30;;;6.70;99.90;;;;;;5090442;28;20459;-75
2022/04/25 03:19:10;;;;;;;28.73;20.53;;;6.70;99.90;;;;;;5088112;28;20508;-75
2022/04/25 03:21:38;;;;;;;35.03;21.43;;;6.70;99.90;;;;;;5089937;28;20533;-76
2022/04/25 03:24:06;;;;;;;29.57;20.10;;;6.80;99.90;;;;;;5087272;28;20451;-75
2022/04/25 03:26:32;;;;;;;32.77;20.30;;;6.80;99.90;;;;;;5086376;28;20513;-75
2022/04/25 03:28:59;;;;;;;29.03;19.60;;;6.90;99.90;;;;;;5075992;28;20452;-75
2022/04/25 03:31:25;;;;;;;33.23;19.93;;;6.90;99.90;;;;;;5074884;28;20475;-75
2022/04/25 03:33:52;;;;;;;27.80;19.67;;;7.00;99.90;;;;;;5075007;28;20560;-75
2022/04/25 03:36:19;;;;;;;29.80;19.63;;;7.10;99.90;;;;;;5088958;28;20455;-75
2022/04/25 03:38:47;;;;;;;30.10;18.10;;;7.20;99.90;;;;;;5089702;28;20489;-75
2022/04/25 03:41:14;;;;;;;36.40;19.00;;;7.20;99.90;;;;;;5087741;28;20475;-75
2022/04/25 03:43:40;;;;;;;23.70;16.53;;;7.30;99.90;;;;;;5088908;28;20451;-75
2022/04/25 03:46:07;;;;;;;26.17;17.80;;;7.40;99.90;;;;;;5087183;28;20946;-75
2022/04/25 03:48:33;;;;;;;23.37;16.83;;;7.40;99.90;;;;;;5089630;28;20451;-75
2022/04/25 03:51:00;;;;;;;22.10;15.40;;;7.50;99.90;;;;;;5087989;28;20546;-76
2022/04/25 03:53:27;;;;;;;20.47;16.00;;;7.60;99.90;;;;;;5082681;28;20478;-75
2022/04/25 03:58:39;;;;;;;19.37;15.67;;;7.70;99.90;;;;;;5074697;28;20442;-75
2022/04/25 04:01:05;;;;;;;25.07;15.40;;;7.80;99.90;;;;;;5075631;28;20536;-75
2022/04/25 04:03:34;;;;;;;20.53;15.27;;;7.80;99.90;;;;;;5074320;28;20447;-76
2022/04/25 04:06:01;;;;;;;28.50;16.37;;;7.90;99.90;;;;;;5076424;28;20447;-76
2022/04/25 04:08:28;;;;;;;21.33;16.03;;;7.90;99.90;;;;;;5089371;28;20549;-75
2022/04/25 04:10:56;;;;;;;22.97;16.90;;;8.00;99.90;;;;;;5089008;28;20466;-75
2022/04/25 04:13:24;;;;;;;25.13;15.97;;;8.00;99.90;;;;;;5073734;28;20486;-76
2022/04/25 04:15:51;;;;;;;22.53;15.87;;;8.00;99.90;;;;;;5072770;28;20456;-76
2022/04/25 04:18:18;;;;;;;23.70;14.90;;;8.00;99.90;;;;;;5075427;28;20815;-75
2022/04/25 04:20:44;;;;;;;23.37;16.13;;;8.00;99.90;;;;;;5074244;28;20487;-75
2022/04/25 04:23:11;;;;;;;25.10;16.70;;;8.00;99.90;;;;;;5085862;28;20451;-73
2022/04/25 04:25:38;;;;;;;27.98;17.40;;;8.00;99.90;;;;;;5088670;28;20452;-75
2022/04/25 04:28:06;;;;;;;24.87;16.97;;;8.10;99.90;;;;;;5085814;28;20258;-77
2022/04/25 04:30:33;;;;;;;30.20;16.43;;;8.10;99.90;;;;;;5088555;28;21092;-77
2022/04/25 04:33:00;;;;;;;24.80;17.83;;;8.10;99.90;;;;;;5074660;28;20491;-76
2022/04/25 04:38:11;;;;;;;35.00;21.43;;;8.10;99.90;;;;;;5075151;28;20455;-77
2022/04/25 04:40:37;;;;;;;41.37;20.30;;;8.00;99.90;;;;;;5073662;28;20479;-75
2022/04/25 04:43:06;;;;;;;37.00;22.57;;;8.00;99.90;;;;;;5074526;28;20447;-76
2022/04/25 04:45:33;;;;;;;38.67;22.73;;;7.90;99.90;;;;;;5086295;28;20935;-75
2022/04/25 04:47:59;;;;;;;32.40;22.43;;;7.80;99.90;;;;;;5088004;28;20455;-75
2022/04/25 04:50:27;;;;;;;32.43;21.03;;;7.80;99.90;;;;;;5087361;28;20512;-75
2022/04/25 04:52:57;;;;;;;26.07;18.23;;;7.80;99.90;;;;;;5085931;28;20462;-75
2022/04/25 04:55:24;;;;;;;25.07;17.00;;;7.90;99.90;;;;;;5086958;28;20448;-74
2022/04/25 04:57:52;;;;;;;25.63;16.33;;;7.90;99.90;;;;;;5088526;28;20476;-75
2022/04/25 05:00:21;;;;;;;20.60;15.70;;;8.00;99.90;;;;;;5086030;28;20483;-75
2022/04/25 05:02:49;;;;;;;20.37;16.10;;;8.10;99.90;;;;;;5073504;28;20460;-75
2022/04/25 05:05:15;;;;;;;25.03;17.30;;;8.20;99.90;;;;;;5075979;28;20459;-75
2022/04/25 05:07:42;;;;;;;24.00;17.00;;;8.30;99.90;;;;;;5073239;28;20478;-75
2022/04/25 05:10:10;;;;;;;23.20;15.70;;;8.30;99.90;;;;;;5076967;28;20470;-75
2022/04/25 05:12:44;;;;;;;21.93;16.37;;;8.40;99.90;;;;;;5088134;28;20459;-75
2022/04/25 05:15:13;;;;;;;21.80;15.80;;;8.40;99.90;;;;;;5083630;28;20466;-75
2022/04/25 05:17:42;;;;;;;19.83;15.00;;;8.50;99.90;;;;;;5088744;28;20458;-75
2022/04/25 05:20:10;;;;;;;26.13;16.00;;;8.50;99.90;;;;;;5083356;28;20467;-75
2022/04/25 05:22:39;;;;;;;20.87;16.20;;;8.50;99.90;;;;;;5073680;28;20872;-75
2022/04/25 05:25:07;;;;;;;18.97;15.50;;;8.60;99.90;;;;;;5071796;28;20960;-75
2022/04/25 05:27:34;;;;;;;20.57;16.07;;;8.60;99.90;;;;;;5086333;28;20446;-75
2022/04/25 05:30:01;;;;;;;23.40;16.37;;;8.60;99.90;;;;;;5089881;28;20462;-75
2022/04/25 05:32:28;;;;;;;24.43;15.87;;;8.60;99.90;;;;;;5090018;28;20447;-76
2022/04/25 05:34:56;;;;;;;21.50;15.17;;;8.60;99.90;;;;;;5088626;28;20559;-75
2022/04/25 05:37:22;;;;;;;21.33;16.37;;;8.70;99.90;;;;;;5090654;28;20465;-76
2022/04/25 05:39:49;;;;;;;22.03;15.90;;;8.70;99.90;;;;;;5090153;28;20475;-75
2022/04/25 05:42:15;;;;;;;21.87;16.47;;;8.80;99.90;;;;;;5090977;28;20458;-76
2022/04/25 05:44:42;;;;;;;19.50;14.43;;;8.90;99.90;;;;;;5090117;28;20500;-75
2022/04/25 05:47:09;;;;;;;19.30;13.93;;;9.00;99.90;;;;;;5090279;28;20492;-75
2022/04/25 05:52:21;;;;;;;19.73;14.07;;;9.00;99.90;;;;;;5090983;28;20784;-75
2022/04/25 05:54:48;;;;;;;19.93;13.37;;;9.10;99.90;;;;;;5090511;28;20482;-75
2022/04/25 05:57:14;;;;;;;16.80;13.87;;;9.10;99.90;;;;;;5090776;28;20454;-75
2022/04/25 05:59:41;;;;;;;17.33;12.40;;;9.20;99.90;;;;;;5090885;28;20970;-76
2022/04/25 06:02:08;;;;;;;16.30;12.27;;;9.20;99.90;;;;;;5090686;28;20512;-76
2022/04/25 06:04:34;;;;;;;18.17;12.57;;;9.30;99.90;;;;;;5090055;28;20947;-76
2022/04/25 06:07:04;;;;;;;17.57;12.17;;;9.40;99.90;;;;;;5089859;28;20491;-76
2022/04/25 06:09:32;;;;;;;15.07;11.77;;;9.40;99.90;;;;;;5090492;28;20467;-77
2022/04/25 06:11:58;;;;;;;15.43;12.77;;;9.40;99.90;;;;;;5090341;28;20869;-76
2022/04/25 06:14:25;;;;;;;15.83;12.33;;;9.40;99.90;;;;;;5090306;28;20489;-76
2022/04/25 06:16:52;;;;;;;16.10;12.13;;;9.50;99.90;;;;;;5090688;28;20439;-77
2022/04/25 06:19:18;;;;;;;17.10;12.40;;;9.50;99.90;;;;;;5079280;28;20939;-74
2022/04/25 06:21:45;;;;;;;16.30;11.70;;;9.60;99.90;;;;;;5088514;28;20491;-75
2022/04/25 06:24:12;;;;;;;14.30;11.87;;;9.60;99.90;;;;;;5088467;28;20545;-75
2022/04/25 06:26:40;;;;;;;11.87;10.60;;;9.70;99.90;;;;;;5088361;28;20470;-75
2022/04/25 06:29:07;;;;;;;17.03;11.70;;;9.80;99.90;;;;;;5090319;28;20462;-75
2022/04/25 06:31:33;;;;;;;12.30;9.80;;;9.90;99.90;;;;;;5092469;28;20813;-75
2022/04/25 06:34:00;;;;;;;11.70;10.30;;;9.90;99.90;;;;;;5091770;28;20486;-75
2022/04/25 06:36:26;;;;;;;11.07;8.77;;;10.00;99.90;;;;;;5093935;28;21090;-73
2022/04/25 06:38:53;;;;;;;11.87;9.70;;;10.00;99.90;;;;;;5094074;28;20942;-75
2022/04/25 06:41:21;;;;;;;12.10;9.77;;;10.30;99.90;;;;;;5089996;28;20474;-75
2022/04/25 06:43:49;;;;;;;11.00;9.87;;;10.60;99.90;;;;;;5082421;28;21253;-76
2022/04/25 06:46:16;;;;;;;10.97;8.77;;;10.60;99.90;;;;;;5084003;28;20454;-75
2022/04/25 06:49:19;;;;;;;9.50;8.50;;;10.80;99.90;;;;;;5075128;28;20459;-75
2022/04/25 06:51:30;;;;;;;12.70;10.13;;;10.80;99.90;;;;;;5091353;28;20442;-76
2022/04/25 06:53:58;;;;;;;16.20;11.57;;;10.80;99.90;;;;;;5092601;28;20478;-75
2022/04/25 06:56:25;;;;;;;13.80;9.70;;;10.80;99.90;;;;;;5088649;28;20547;-75
2022/04/25 06:58:54;;;;;;;14.53;10.10;;;10.70;99.90;;;;;;5074051;28;20512;-75
2022/04/25 07:01:21;;;;;;;11.37;9.77;;;10.70;99.90;;;;;;5072352;28;20528;-76
2022/04/25 07:03:47;;;;;;;11.17;8.90;;;10.80;99.90;;;;;;5072241;28;20455;-75
2022/04/25 07:06:14;;;;;;;10.70;8.33;;;11.00;99.90;;;;;;5087090;28;20446;-76
2022/04/25 07:08:40;;;;;;;10.03;8.90;;;11.20;99.90;;;;;;5093793;28;20878;-76
2022/04/25 07:11:07;;;;;;;11.07;9.23;;;11.30;99.90;;;;;;5091282;28;20583;-76
2022/04/25 07:13:34;;;;;;;11.23;9.53;;;11.40;99.90;;;;;;5081373;28;20477;-76
2022/04/25 07:16:02;;;;;;;12.00;9.43;;;11.50;99.90;;;;;;5086824;28;20458;-76
2022/04/25 07:18:30;;;;;;;12.00;9.47;;;11.60;99.90;;;;;;5083522;28;20851;-75
2022/04/25 07:20:56;;;;;;;11.80;9.50;;;11.70;99.90;;;;;;5093197;28;20549;-76
2022/04/25 07:28:57;;;;;;;15.30;11.10;;;11.60;99.90;;;;;;5129341;27;20487;-76
2022/04/25 07:31:26;;;;;;;20.27;12.17;;;11.60;99.90;;;;;;5130413;27;20468;-76
2022/04/25 07:33:56;;;;;;;15.83;12.43;;;11.40;99.90;;;;;;5129263;27;20556;-76
2022/04/25 07:36:24;;;;;;;15.07;11.80;;;11.40;99.90;;;;;;5129469;27;20872;-77
2022/04/25 07:38:51;;;;;;;19.40;11.23;;;11.40;99.90;;;;;;5129923;27;20452;-76
2022/04/25 07:41:17;;;;;;;19.37;11.37;;;11.50;99.90;;;;;;5126999;27;20551;-77
2022/04/25 07:43:44;;;;;;;17.73;11.90;;;11.50;99.90;;;;;;5127176;27;20461;-77
2022/04/25 07:46:13;;;;;;;16.40;10.43;;;11.50;99.90;;;;;;5129365;27;20445;-76
2022/04/25 07:48:41;;;;;;;14.07;10.53;;;11.40;99.90;;;;;;5129068;27;20465;-76
2022/04/25 07:51:07;;;;;;;18.07;11.50;;;11.30;99.90;;;;;;5129322;27;21063;-76
2022/04/25 07:53:34;;;;;;;13.43;10.23;;;11.30;99.90;;;;;;5128547;27;20849;-76
2022/04/25 07:56:01;;;;;;;17.57;11.10;;;11.20;99.90;;;;;;5129956;27;20506;-76
2022/04/25 07:58:27;;;;;;;19.20;11.10;;;11.20;99.90;;;;;;5128810;27;20553;-76
2022/04/25 08:00:56;;;;;;;14.30;10.77;;;11.30;99.90;;;;;;5129214;27;20909;-76
2022/04/25 08:03:23;;;;;;;14.93;11.47;;;11.30;99.90;;;;;;5126264;27;20486;-76
2022/04/25 08:05:50;;;;;;;16.67;10.67;;;11.40;99.90;;;;;;5130122;27;20429;-76
2022/04/25 08:08:17;;;;;;;25.20;12.10;;;11.40;99.90;;;;;;5128974;27;20940;-76
2022/04/25 08:10:44;;;;;;;13.80;11.07;;;11.50;99.90;;;;;;5130037;27;20522;-76
2022/04/25 08:18:39;;;;;;;22.03;13.77;;;11.60;99.90;;;;;;5129436;27;20432;-76
2022/04/25 08:21:07;;;;;;;20.40;13.30;;;11.60;99.90;;;;;;5128881;27;20481;-76
2022/04/25 08:23:34;;;;;;;16.80;11.50;;;11.70;99.90;;;;;;5128298;27;20509;-76
2022/04/25 08:26:01;;;;;;;25.97;15.60;;;11.80;99.90;;;;;;5129337;27;20452;-76
2022/04/25 08:28:27;;;;;;;26.87;14.00;;;11.80;99.90;;;;;;5126674;27;20457;-76
2022/04/25 08:30:54;;;;;;;39.33;19.23;;;11.80;99.90;;;;;;5129162;27;20461;-76
2022/04/25 08:33:21;;;;;;;17.40;11.53;;;11.80;99.90;;;;;;5128179;27;20497;-76
2022/04/25 08:35:47;;;;;;;25.17;13.57;;;11.70;99.90;;;;;;5129598;27;20484;-76
2022/04/25 08:38:15;;;;;;;15.83;12.07;;;11.60;99.90;;;;;;5129490;27;20815;-76
2022/04/25 08:40:44;;;;;;;16.67;11.20;;;11.50;99.90;;;;;;5127837;27;21581;-76
2022/04/25 08:43:12;;;;;;;15.53;11.53;;;11.50;99.90;;;;;;5128369;27;20509;-76
2022/04/25 08:45:39;;;;;;;14.47;11.10;;;11.40;99.90;;;;;;5129094;27;20452;-76
2022/04/25 08:48:08;;;;;;;15.93;11.60;;;11.30;99.90;;;;;;5128708;27;20445;-76
2022/04/25 08:50:35;;;;;;;19.27;11.30;;;11.40;99.90;;;;;;5127254;27;20526;-76
2022/04/25 08:53:02;;;;;;;16.10;11.80;;;11.20;99.90;;;;;;5126642;27;21239;-76
2022/04/25 08:55:30;;;;;;;19.23;12.20;;;11.20;99.90;;;;;;5127756;27;20492;-76
2022/04/25 08:57:59;;;;;;;18.57;12.60;;;11.20;99.90;;;;;;5126952;27;20441;-76
2022/04/25 09:00:26;;;;;;;15.23;11.20;;;11.30;99.90;;;;;;5127944;27;20883;-75
2022/04/25 09:02:54;;;;;;;18.70;10.93;;;11.40;99.90;;;;;;5127672;27;20456;-76
2022/04/25 09:05:22;;;;;;;14.37;11.47;;;11.50;99.90;;;;;;5127301;27;20449;-76
2022/04/25 09:07:48;;;;;;;14.07;11.43;;;11.70;99.90;;;;;;5128203;27;20778;-76
2022/04/25 09:10:19;;;;;;;18.37;11.97;;;11.90;99.90;;;;;;5126908;27;20505;-76
2022/04/25 09:12:47;;;;;;;13.97;10.40;;;12.00;99.90;;;;;;5128357;27;20444;-76
2022/04/25 09:15:18;;;;;;;23.63;11.40;;;12.20;99.90;;;;;;5127504;27;20473;-76
2022/04/25 09:17:44;;;;;;;17.13;11.73;;;12.40;99.90;;;;;;5128022;27;20509;-75
2022/04/25 09:20:12;;;;;;;14.47;11.00;;;13.00;99.90;;;;;;5127733;27;20530;-76
2022/04/25 09:22:40;;;;;;;15.90;11.10;;;13.60;99.90;;;;;;5127932;27;20460;-75
2022/04/25 09:25:09;;;;;;;15.10;10.40;;;14.10;99.90;;;;;;5126721;27;20981;-76
2022/04/25 09:27:36;;;;;;;16.37;10.80;;;14.50;99.90;;;;;;5126220;27;21032;-76
2022/04/25 09:30:16;;;;;;;14.30;10.40;;;14.50;99.90;;;;;;5127174;27;20464;-76
2022/04/25 09:32:43;;;;;;;14.43;11.30;;;14.40;99.90;;;;;;5126115;27;20967;-76
2022/04/25 09:35:32;;;;;;;14.97;10.93;;;14.30;99.90;;;;;;5127408;27;21082;-76
2022/04/25 09:38:00;;;;;;;41.93;22.00;;;14.30;99.90;;;;;;5126227;27;21108;-76
2022/04/25 09:40:29;;;;;;;20.13;12.23;;;14.50;99.90;;;;;;5125428;27;20486;-76
2022/04/25 09:43:08;;;;;;;11.47;9.83;;;14.80;99.90;;;;;;5127376;27;20544;-76
2022/04/25 09:45:40;;;;;;;14.63;11.97;;;14.80;99.90;;;;;;5126947;27;20437;-77
2022/04/25 09:48:11;;;;;;;14.97;11.00;;;15.00;99.90;;;;;;5128615;27;20460;-76
2022/04/25 09:50:38;;;;;;;14.33;10.73;;;14.90;99.90;;;;;;5126932;27;20449;-76
2022/04/25 09:53:06;;;;;;;13.90;10.73;;;14.90;99.90;;;;;;5125652;27;20917;-76
2022/04/25 09:55:34;;;;;;;19.27;10.90;;;15.10;99.90;;;;;;5125767;27;20469;-76
2022/04/25 09:58:14;;;;;;;13.20;10.50;;;15.20;99.90;;;;;;5127963;27;20510;-77
2022/04/25 10:00:43;;;;;;;16.43;10.10;;;14.90;99.90;;;;;;5127617;27;20471;-76
2022/04/25 10:03:10;;;;;;;15.00;10.43;;;14.80;99.90;;;;;;5125912;27;20441;-76
2022/04/25 10:05:40;;;;;;;13.00;10.53;;;14.90;99.90;;;;;;5127222;27;20437;-76
2022/04/25 10:08:08;;;;;;;12.33;9.70;;;15.10;99.90;;;;;;5127156;28;20456;-76
2022/04/25 10:10:35;;;;;;;11.97;9.60;;;15.40;99.90;;;;;;5126295;27;20464;-77
2022/04/25 10:13:02;;;;;;;15.67;10.10;;;15.60;99.90;;;;;;5128359;28;20494;-77
2022/04/25 10:15:29;;;;;;;11.77;9.77;;;15.90;99.90;;;;;;5127475;27;20600;-77
2022/04/25 10:17:57;;;;;;;14.10;10.50;;;16.20;99.90;;;;;;5128021;28;20445;-77
2022/04/25 10:20:24;;;;;;;12.37;9.10;;;16.60;99.90;;;;;;5127353;28;20884;-77
2022/04/25 10:22:50;;;;;;;13.30;9.47;;;17.00;99.90;;;;;;5127331;28;20924;-76
2022/04/25 10:25:17;;;;;;;10.73;9.63;;;17.20;99.90;;;;;;5127966;28;20882;-76
2022/04/25 10:27:45;;;;;;;10.33;9.23;;;17.10;99.90;;;;;;5127513;28;20931;-76
2022/04/25 10:30:16;;;;;;;10.90;9.77;;;16.90;99.90;;;;;;5127418;28;20443;-75
2022/04/25 10:32:43;;;;;;;12.27;9.23;;;16.60;99.90;;;;;;5127210;28;20538;-75
2022/04/25 10:35:16;;;;;;;11.17;9.93;;;16.40;99.90;;;;;;5123815;27;20489;-76
2022/04/25 10:37:44;;;;;;;13.67;10.53;;;16.30;99.90;;;;;;5126079;27;20488;-75
2022/04/25 10:40:13;;;;;;;14.40;10.80;;;16.10;99.90;;;;;;5125789;27;20833;-76
2022/04/25 10:45:54;;;;;;;15.83;10.80;;;15.10;99.90;;;;;;5122581;28;20444;-76
2022/04/25 10:48:21;;;;;;;12.50;10.97;;;14.70;99.90;;;;;;5119775;28;20445;-76
2022/04/25 10:51:13;;;;;;;16.00;10.83;;;14.50;99.90;;;;;;5120122;28;20468;-75
2022/04/25 10:53:59;;;;;;;11.30;10.17;;;14.30;99.90;;;;;;5110751;27;20992;-76
2022/04/25 10:56:26;;;;;;;11.30;10.00;;;14.40;99.90;;;;;;5109010;28;20566;-76
2022/04/25 10:59:24;;;;;;;19.63;11.10;;;14.60;99.90;;;;;;5120014;27;20453;-76
2022/04/25 11:01:51;;;;;;;13.87;11.20;;;14.70;99.90;;;;;;5110542;28;20453;-76
2022/04/25 11:04:19;;;;;;;12.40;11.10;;;14.80;99.90;;;;;;5115319;28;20449;-76
2022/04/25 11:06:48;;;;;;;12.63;10.50;;;14.80;99.90;;;;;;5115616;28;20529;-76
2022/04/25 11:09:39;;;;;;;15.73;10.83;;;14.80;99.90;;;;;;5120145;28;20587;-76
2022/04/25 11:12:07;;;;;;;15.23;11.17;;;14.80;99.90;;;;;;5121381;27;20452;-76
2022/04/25 11:14:34;;;;;;;16.80;12.00;;;14.80;99.90;;;;;;5130280;27;20461;-76
2022/04/25 11:17:14;;;;;;;14.03;11.50;;;14.90;99.90;;;;;;5132901;27;20476;-76
2022/04/25 11:19:51;;;;;;;17.60;11.37;;;15.00;99.90;;;;;;5133509;27;20901;-76
2022/04/25 11:22:50;;;;;;;19.03;12.00;;;14.80;99.90;;;;;;5117817;27;20941;-76
2022/04/25 11:25:36;;;;;;;12.80;11.20;;;14.60;99.90;;;;;;5110783;27;20469;-76
2022/04/25 11:28:04;;;;;;;16.23;11.07;;;14.50;99.90;;;;;;5119273;27;20457;-76
2022/04/25 11:30:31;;;;;;;14.77;11.00;;;14.70;99.90;;;;;;5125183;27;20516;-76
2022/04/25 11:33:03;;;;;;;13.30;11.17;;;14.90;99.90;;;;;;5130917;27;21014;-76
2022/04/25 11:35:29;;;;;;;15.27;11.47;;;15.10;99.90;;;;;;5130951;27;20636;-77
2022/04/25 11:37:58;;;;;;;13.10;10.30;;;15.20;99.90;;;;;;5121501;27;20496;-76
2022/04/25 11:40:27;;;;;;;12.93;10.53;;;15.30;99.90;;;;;;5129180;27;20905;-76
2022/04/25 11:42:54;;;;;;;14.73;11.33;;;15.50;99.90;;;;;;5133113;27;21020;-76
2022/04/25 11:45:21;;;;;;;12.60;10.00;;;15.60;99.90;;;;;;5130497;27;20457;-76
2022/04/25 11:47:48;;;;;;;12.67;9.63;;;15.70;99.90;;;;;;5127418;27;21014;-76
2022/04/25 11:50:19;;;;;;;12.30;10.23;;;15.70;99.90;;;;;;5129395;27;20469;-76
2022/04/25 11:52:46;;;;;;;11.40;9.90;;;15.60;99.90;;;;;;5131309;27;20465;-76
2022/04/25 11:55:17;;;;;;;12.00;9.90;;;15.60;99.90;;;;;;5117959;27;20897;-76
2022/04/25 11:57:45;;;;;;;11.30;9.90;;;15.60;99.90;;;;;;5122068;27;20450;-76
2022/04/25 12:00:17;;;;;;;11.37;9.70;;;15.80;99.90;;;;;;5112991;27;20501;-76
2022/04/25 12:02:45;;;;;;;11.97;10.00;;;16.00;99.90;;;;;;5117580;27;20556;-76
2022/04/25 12:05:12;;;;;;;11.07;9.73;;;16.20;99.90;;;;;;5119251;27;20441;-76
2022/04/25 12:15:34;;;;;;;19.10;9.70;;;16.20;99.90;;;;;;5114344;27;20456;-76
2022/04/25 12:16:01;;;;;;;13.37;9.80;;;16.20;99.90;;;;;;5117244;27;20519;-76
2022/04/25 12:18:30;;;;;;;10.83;9.30;;;16.10;99.90;;;;;;5117127;27;20489;-76
2022/04/25 12:21:03;;;;;;;12.10;9.53;;;16.00;99.90;;;;;;5112757;27;20473;-76
2022/04/25 12:23:32;;;;;;;13.00;9.70;;;15.80;99.90;;;;;;5112037;28;20729;-76
2022/04/25 12:26:03;;;;;;;10.90;9.80;;;15.70;99.90;;;;;;5116015;27;20464;-76
2022/04/25 12:28:31;;;;;;;15.00;8.80;;;15.60;99.90;;;;;;5122017;27;20465;-76
2022/04/25 12:31:05;;;;;;;10.50;9.40;;;15.50;99.90;;;;;;5121018;27;20458;-76
2022/04/25 12:33:34;;;;;;;10.97;9.53;;;15.30;99.90;;;;;;5111744;28;20480;-76
2022/04/25 12:36:10;;;;;;;12.50;9.50;;;15.30;99.90;;;;;;5115048;27;20472;-76
2022/04/25 12:38:40;;;;;;;12.27;10.03;;;15.40;99.90;;;;;;5124765;27;20457;-76
2022/04/25 12:41:10;;;;;;;10.30;9.20;;;15.30;99.90;;;;;;5126808;27;20481;-76
2022/04/25 12:43:43;;;;;;;9.40;8.50;;;15.20;99.90;;;;;;5111289;28;20453;-76
2022/04/25 12:46:11;;;;;;;10.13;9.10;;;14.90;99.90;;;;;;5117637;27;20479;-76
2022/04/25 12:49:04;;;;;;;11.67;10.47;;;14.40;99.90;;;;;;5114315;27;20510;-76
2022/04/25 12:51:40;;;;;;;11.47;9.30;;;14.00;99.90;;;;;;5112180;28;20985;-76
2022/04/25 12:54:19;;;;;;;11.30;9.30;;;13.80;99.90;;;;;;5111062;27;20452;-77
2022/04/25 12:56:48;;;;;;;10.70;9.60;;;13.70;99.90;;;;;;5114073;27;20572;-76
2022/04/25 12:59:24;;;;;;;9.70;8.60;;;13.60;99.90;;;;;;5131044;27;20452;-76
2022/04/25 13:02:01;;;;;;;11.93;9.17;;;13.60;99.90;;;;;;5132678;27;20440;-76
2022/04/25 13:04:28;;;;;;;11.07;9.13;;;13.80;99.90;;;;;;5114827;27;20485;-76
2022/04/25 13:06:55;;;;;;;10.77;9.20;;;14.00;99.90;;;;;;5118530;27;20459;-76
2022/04/25 13:09:22;;;;;;;11.77;9.30;;;14.30;99.90;;;;;;5122694;27;20457;-76
2022/04/25 13:11:50;;;;;;;12.23;9.17;;;14.40;99.90;;;;;;5131274;27;20453;-76